createdAt,value
2019-03-06T00:01:58.848Z,4.40
2019-03-06T00:04:28.342Z,4.33
2019-03-06T00:06:57.956Z,4.34
2019-03-06T00:09:27.699Z,4.34
2019-03-06T00:11:57.427Z,4.31
2019-03-06T00:14:27.058Z,4.24
2019-03-06T00:16:56.990Z,4.43
2019-03-06T00:19:26.624Z,4.46
2019-03-06T00:21:56.353Z,4.61
2019-03-06T00:24:26.099Z,4.56
2019-03-06T00:26:55.607Z,4.66
2019-03-06T00:29:25.287Z,4.66
2019-03-06T00:31:54.984Z,4.71
2019-03-06T00:34:24.592Z,4.71
2019-03-06T00:36:54.227Z,4.65
2019-03-06T00:39:23.862Z,4.62
2019-03-06T00:41:53.375Z,4.69
2019-03-06T00:44:23.003Z,4.74
2019-03-06T00:46:52.628Z,4.63
2019-03-06T00:49:22.103Z,4.63
2019-03-06T00:51:51.683Z,4.57
2019-03-06T00:54:21.415Z,4.48
2019-03-06T00:56:51.065Z,4.38
2019-03-06T00:59:21.656Z,4.29
2019-03-06T01:01:51.318Z,4.40
2019-03-06T01:04:21.263Z,4.34
2019-03-06T01:06:50.998Z,4.27
2019-03-06T01:09:20.607Z,4.18
2019-03-06T01:11:50.236Z,4.06
2019-03-06T01:14:19.765Z,4.02
2019-03-06T01:16:49.503Z,3.97
2019-03-06T01:19:19.127Z,4.05
2019-03-06T01:21:48.850Z,4.16
2019-03-06T01:24:18.581Z,4.12
2019-03-06T01:26:48.413Z,4.09
2019-03-06T01:29:18.251Z,4.30
2019-03-06T01:31:47.912Z,4.26
2019-03-06T01:34:31.319Z,4.38
2019-03-06T01:37:04.628Z,4.38
2019-03-06T01:39:35.987Z,4.41
2019-03-06T01:42:12.775Z,4.32
2019-03-06T01:44:44.036Z,4.26
2019-03-06T01:47:13.764Z,4.26
2019-03-06T01:49:43.507Z,4.26
2019-03-06T01:52:13.131Z,4.29
2019-03-06T01:54:43.876Z,4.27
2019-03-06T01:57:13.411Z,4.16
2019-03-06T01:59:43.139Z,4.16
2019-03-06T02:02:12.768Z,4.13
2019-03-06T02:04:42.395Z,4.21
2019-03-06T02:07:12.533Z,4.25
2019-03-06T02:09:42.476Z,4.28
2019-03-06T02:12:12.049Z,4.23
2019-03-06T02:14:43.456Z,4.18
2019-03-06T02:17:13.189Z,4.07
2019-03-06T02:19:42.918Z,3.99
2019-03-06T02:22:12.543Z,4.04
2019-03-06T02:24:42.177Z,4.05
2019-03-06T02:27:12.928Z,4.18
2019-03-06T02:29:42.555Z,4.14
2019-03-06T02:32:12.905Z,4.11
2019-03-06T02:34:42.630Z,4.07
2019-03-06T02:37:12.256Z,4.07
2019-03-06T02:39:41.882Z,4.07
2019-03-06T02:42:11.618Z,4.07
2019-03-06T02:44:41.241Z,4.01
2019-03-06T02:47:11.794Z,4.10
2019-03-06T02:49:40.941Z,4.09
2019-03-06T02:52:10.641Z,4.04
2019-03-06T02:54:40.268Z,3.95
2019-03-06T02:57:10.921Z,3.99
2019-03-06T02:59:42.045Z,4.05
2019-03-06T03:02:13.243Z,4.02
2019-03-06T03:04:53.295Z,3.91
2019-03-06T03:07:23.031Z,4.04
2019-03-06T03:09:52.766Z,3.92
2019-03-06T03:12:22.488Z,3.84
2019-03-06T03:14:52.321Z,3.65
2019-03-06T03:17:22.023Z,3.58
2019-03-06T03:19:51.885Z,3.50
2019-03-06T03:22:21.735Z,3.37
2019-03-06T03:24:52.370Z,3.37
2019-03-06T03:27:22.045Z,3.26
2019-03-06T03:29:51.724Z,3.16
2019-03-06T03:32:21.458Z,3.07
2019-03-06T03:34:51.204Z,2.98
2019-03-06T03:37:20.817Z,2.86
2019-03-06T03:39:50.461Z,2.74
2019-03-06T03:42:20.059Z,2.66
2019-03-06T03:44:50.139Z,2.59
2019-03-06T03:47:19.851Z,2.52
2019-03-06T03:49:50.032Z,2.37
2019-03-06T03:52:19.806Z,2.38
2019-03-06T03:54:49.436Z,2.32
2019-03-06T03:57:19.068Z,2.26
2019-03-06T03:59:48.701Z,2.16
2019-03-06T04:02:19.450Z,2.18
2019-03-06T04:04:49.122Z,2.21
2019-03-06T04:07:18.617Z,2.25
2019-03-06T04:09:48.533Z,2.20
2019-03-06T04:12:18.379Z,2.19
2019-03-06T04:14:48.103Z,2.18
2019-03-06T04:17:17.839Z,2.21
2019-03-06T04:19:47.579Z,2.29
2019-03-06T04:22:17.288Z,2.31
2019-03-06T04:24:47.015Z,2.33
2019-03-06T04:27:16.747Z,2.32
2019-03-06T04:29:46.478Z,2.37
2019-03-06T04:32:16.103Z,2.41
2019-03-06T04:34:45.747Z,2.38
2019-03-06T04:37:15.262Z,2.45
2019-03-06T04:39:44.990Z,2.48
2019-03-06T04:42:16.167Z,2.46
2019-03-06T04:44:45.784Z,2.37
2019-03-06T04:47:15.512Z,2.37
2019-03-06T04:49:52.437Z,2.40
2019-03-06T04:52:16.615Z,2.44
2019-03-06T04:54:46.238Z,2.45
2019-03-06T04:57:16.068Z,2.49
2019-03-06T04:59:46.096Z,2.64
2019-03-06T05:02:15.731Z,2.70
2019-03-06T05:04:45.267Z,2.73
2019-03-06T05:07:14.883Z,2.75
2019-03-06T05:09:44.526Z,2.87
2019-03-06T05:12:14.066Z,2.94
2019-03-06T05:14:44.993Z,3.05
2019-03-06T05:17:16.160Z,3.07
2019-03-06T05:19:46.910Z,3.22
2019-03-06T05:22:16.536Z,3.40
2019-03-06T05:24:46.096Z,3.56
2019-03-06T05:27:15.894Z,3.61
2019-03-06T05:29:45.429Z,3.73
2019-03-06T05:32:32.340Z,3.85
2019-03-06T05:35:10.720Z,3.94
2019-03-06T05:37:52.176Z,4.11
2019-03-06T05:40:22.911Z,4.28
2019-03-06T05:42:53.559Z,6.29
2019-03-06T05:45:23.281Z,8.92
2019-03-06T05:47:53.017Z,10.03
2019-03-06T05:50:22.744Z,9.90
2019-03-06T05:52:52.476Z,10.47
2019-03-06T05:55:22.130Z,11.02
2019-03-06T05:57:51.935Z,12.00
2019-03-06T06:00:26.573Z,11.74
2019-03-06T06:02:56.328Z,13.73
2019-03-06T06:05:32.250Z,13.19
2019-03-06T06:08:06.324Z,13.60
2019-03-06T06:10:42.600Z,13.82
2019-03-06T06:13:12.437Z,15.49
2019-03-06T06:15:42.455Z,16.36
2019-03-06T06:18:12.426Z,16.88
2019-03-06T06:20:42.915Z,14.35
2019-03-06T06:23:32.852Z,16.08
2019-03-06T06:26:05.392Z,15.50
2019-03-06T06:28:39.315Z,13.43
2019-03-06T06:31:09.668Z,13.00
2019-03-06T06:33:46.332Z,13.75
2019-03-06T06:36:16.385Z,15.86
2019-03-06T06:38:46.871Z,14.62
2019-03-06T06:41:20.362Z,15.73
2019-03-06T06:43:50.900Z,15.07
2019-03-06T06:46:22.739Z,15.41
2019-03-06T06:48:52.403Z,16.56
2019-03-06T06:51:35.593Z,17.58
2019-03-06T06:54:11.742Z,17.11
2019-03-06T06:56:47.367Z,17.78
2019-03-06T06:59:23.336Z,16.62
2019-03-06T07:02:21.840Z,16.60
2019-03-06T07:05:24.552Z,19.17
2019-03-06T07:08:07.384Z,15.40
2019-03-06T07:10:47.247Z,17.48
2019-03-06T07:13:18.505Z,19.18
2019-03-06T07:15:49.890Z,18.75
2019-03-06T07:18:23.815Z,17.55
2019-03-06T07:21:07.237Z,20.39
2019-03-06T07:23:38.395Z,19.12
2019-03-06T07:26:09.666Z,19.28
2019-03-06T07:28:41.386Z,20.44
2019-03-06T07:31:15.564Z,20.10
2019-03-06T07:33:49.750Z,19.75
2019-03-06T07:36:37.422Z,18.68
2019-03-06T07:39:09.505Z,16.52
2019-03-06T07:41:40.872Z,13.41
2019-03-06T07:44:12.238Z,15.55
2019-03-06T07:47:02.117Z,18.68
2019-03-06T07:49:44.673Z,18.50
2019-03-06T07:52:12.218Z,20.11
2019-03-06T07:54:46.135Z,19.04
2019-03-06T07:57:17.499Z,20.21
2019-03-06T07:59:47.231Z,21.28
2019-03-06T08:02:30.901Z,19.15
2019-03-06T08:05:00.806Z,21.05
2019-03-06T08:07:30.543Z,20.83
2019-03-06T08:10:00.538Z,20.98
2019-03-06T08:12:33.177Z,18.22
2019-03-06T08:15:04.432Z,17.09
2019-03-06T08:17:47.870Z,20.97
2019-03-06T08:20:25.370Z,22.50
2019-03-06T08:22:56.634Z,18.11
2019-03-06T08:25:36.921Z,19.70
2019-03-06T08:28:06.639Z,20.93
2019-03-06T08:30:37.806Z,17.95
2019-03-06T08:33:07.520Z,17.12
2019-03-06T08:35:37.256Z,18.60
2019-03-06T08:38:06.880Z,18.54
2019-03-06T08:40:36.616Z,20.08
2019-03-06T08:43:06.347Z,20.79
2019-03-06T08:45:54.207Z,20.31
2019-03-06T08:48:37.402Z,19.92
2019-03-06T08:51:14.741Z,19.72
2019-03-06T08:53:49.153Z,20.35
2019-03-06T08:56:32.368Z,20.43
2019-03-06T08:59:15.598Z,20.52
2019-03-06T09:01:46.963Z,20.12
2019-03-06T09:04:27.457Z,18.49
2019-03-06T09:07:01.560Z,19.60
2019-03-06T09:09:35.998Z,18.90
2019-03-06T09:12:25.781Z,18.45
2019-03-06T09:15:11.976Z,18.69
2019-03-06T09:17:43.345Z,16.69
2019-03-06T09:20:17.711Z,20.01
2019-03-06T09:22:49.034Z,19.07
2019-03-06T09:25:32.376Z,18.36
2019-03-06T09:28:09.571Z,18.50
2019-03-06T09:30:42.773Z,18.70
2019-03-06T09:33:20.384Z,15.98
2019-03-06T09:36:01.866Z,16.03
2019-03-06T09:38:48.576Z,16.73
2019-03-06T09:41:25.671Z,17.93
2019-03-06T09:43:57.033Z,19.53
2019-03-06T09:46:31.165Z,17.25
2019-03-06T09:49:14.409Z,19.35
2019-03-06T09:51:45.760Z,17.34
2019-03-06T09:54:32.267Z,18.15
2019-03-06T09:57:12.734Z,22.94
2019-03-06T10:00:00.318Z,17.36
2019-03-06T10:02:48.243Z,19.37
2019-03-06T10:05:25.390Z,20.64
2019-03-06T10:07:56.658Z,16.74
2019-03-06T10:10:31.003Z,20.34
2019-03-06T10:13:21.394Z,21.68
2019-03-06T10:15:52.750Z,24.12
2019-03-06T10:18:30.046Z,24.87
2019-03-06T10:20:59.982Z,18.81
2019-03-06T10:23:29.617Z,22.27
2019-03-06T10:25:59.438Z,19.98
2019-03-06T10:28:29.236Z,21.11
2019-03-06T10:31:02.336Z,21.06
2019-03-06T10:33:30.473Z,22.48
2019-03-06T10:36:00.654Z,22.70
2019-03-06T10:38:30.544Z,25.57
2019-03-06T10:41:00.594Z,27.58
2019-03-06T10:43:30.422Z,29.55
2019-03-06T10:46:00.258Z,23.53
2019-03-06T10:48:29.942Z,22.13
2019-03-06T10:50:59.601Z,17.79
2019-03-06T10:53:29.231Z,15.87
2019-03-06T10:55:58.967Z,15.97
2019-03-06T10:58:29.101Z,17.89
2019-03-06T11:00:58.841Z,17.38
2019-03-06T11:03:38.998Z,17.38
2019-03-06T11:06:09.037Z,21.18
2019-03-06T11:08:38.773Z,23.65
2019-03-06T11:11:09.412Z,23.57
2019-03-06T11:13:39.038Z,18.41
2019-03-06T11:16:09.179Z,15.10
2019-03-06T11:18:39.477Z,15.59
2019-03-06T11:21:09.253Z,18.33
2019-03-06T11:23:38.961Z,22.04
2019-03-06T11:26:08.713Z,25.10
2019-03-06T11:28:39.973Z,25.82
2019-03-06T11:31:09.757Z,27.34
2019-03-06T11:33:40.767Z,27.33
2019-03-06T11:36:10.540Z,26.52
2019-03-06T11:38:40.262Z,26.86
2019-03-06T11:41:09.959Z,27.72
2019-03-06T11:43:40.714Z,27.63
2019-03-06T11:46:10.949Z,26.63
2019-03-06T11:48:41.926Z,27.97
2019-03-06T11:51:11.558Z,27.43
2019-03-06T11:53:41.182Z,25.92
2019-03-06T11:56:10.909Z,25.87
2019-03-06T11:58:40.663Z,25.20
2019-03-06T12:01:13.273Z,26.24
2019-03-06T12:03:42.964Z,24.19
2019-03-06T12:06:12.845Z,24.43
2019-03-06T12:08:45.773Z,25.67
2019-03-06T12:11:14.264Z,23.88
2019-03-06T12:13:44.057Z,25.67
2019-03-06T12:16:15.696Z,25.51
2019-03-06T12:18:45.528Z,24.37
2019-03-06T12:21:15.411Z,25.21
2019-03-06T12:23:45.210Z,26.69
2019-03-06T12:26:14.996Z,28.28
2019-03-06T12:28:44.856Z,29.04
2019-03-06T12:31:14.580Z,27.07
2019-03-06T12:33:44.416Z,26.55
2019-03-06T12:36:14.046Z,25.55
2019-03-06T12:38:43.781Z,24.14
2019-03-06T12:41:14.329Z,24.85
2019-03-06T12:43:44.803Z,24.68
2019-03-06T12:46:23.790Z,26.05
2019-03-06T12:48:57.300Z,27.18
2019-03-06T12:51:27.173Z,26.24
2019-03-06T12:53:56.898Z,25.58
2019-03-06T12:56:26.462Z,23.29
2019-03-06T12:58:56.246Z,22.49
2019-03-06T13:01:27.435Z,22.80
2019-03-06T13:03:57.244Z,22.72
2019-03-06T13:06:26.865Z,22.79
2019-03-06T13:08:56.667Z,24.71
2019-03-06T13:11:26.537Z,25.48
2019-03-06T13:13:56.172Z,24.56
2019-03-06T13:16:26.002Z,24.53
2019-03-06T13:18:55.820Z,23.96
2019-03-06T13:21:25.554Z,24.10
2019-03-06T13:23:56.342Z,23.44
2019-03-06T13:26:26.138Z,21.67
2019-03-06T13:28:57.662Z,22.04
2019-03-06T13:31:27.170Z,22.74
2019-03-06T13:34:05.556Z,22.33
2019-03-06T13:36:35.182Z,21.94
2019-03-06T13:39:06.776Z,20.73
2019-03-06T13:41:38.428Z,21.37
2019-03-06T13:44:08.155Z,20.51
2019-03-06T13:46:37.894Z,20.88
2019-03-06T13:49:07.512Z,20.55
2019-03-06T13:51:37.195Z,20.97
2019-03-06T13:54:06.955Z,19.75
2019-03-06T13:56:38.478Z,16.19
2019-03-06T13:59:08.076Z,15.66
2019-03-06T14:01:38.113Z,14.86
2019-03-06T14:04:07.738Z,14.38
2019-03-06T14:06:37.606Z,14.21
2019-03-06T14:09:08.015Z,13.76
2019-03-06T14:11:39.187Z,13.51
2019-03-06T14:14:08.918Z,13.48
2019-03-06T14:16:38.743Z,13.34
2019-03-06T14:19:08.373Z,13.04
2019-03-06T14:21:38.209Z,12.89
2019-03-06T14:24:08.448Z,12.80
2019-03-06T14:26:38.280Z,12.78
2019-03-06T14:29:07.913Z,12.74
2019-03-06T14:31:37.634Z,12.69
2019-03-06T14:34:08.392Z,12.55
2019-03-06T14:36:38.129Z,12.52
2019-03-06T14:39:14.292Z,12.63
2019-03-06T14:41:43.928Z,12.67
2019-03-06T14:44:13.655Z,12.66
2019-03-06T14:46:43.289Z,12.53
2019-03-06T14:49:13.109Z,12.52
2019-03-06T14:51:42.957Z,12.65
2019-03-06T14:54:12.900Z,12.73
2019-03-06T14:56:42.712Z,12.77
2019-03-06T14:59:12.352Z,12.72
2019-03-06T15:01:41.955Z,12.33
2019-03-06T15:04:11.603Z,12.08
2019-03-06T15:06:41.320Z,12.01
2019-03-06T15:09:20.567Z,11.88
2019-03-06T15:11:50.199Z,11.71
2019-03-06T15:14:19.826Z,11.51
2019-03-06T15:16:49.566Z,11.26
2019-03-06T15:19:19.487Z,11.17
2019-03-06T15:21:49.330Z,11.19
2019-03-06T15:24:19.051Z,11.20
2019-03-06T15:26:48.784Z,11.23
2019-03-06T15:29:18.409Z,11.22
2019-03-06T15:31:48.140Z,11.18
2019-03-06T15:34:17.768Z,11.08
2019-03-06T15:36:48.735Z,11.05
2019-03-06T15:39:24.602Z,10.99
2019-03-06T15:42:00.292Z,10.87
2019-03-06T15:44:25.691Z,10.75
2019-03-06T15:46:56.457Z,10.66
2019-03-06T15:49:26.045Z,10.56
2019-03-06T15:52:01.784Z,10.44
2019-03-06T15:54:32.700Z,10.28
2019-03-06T15:57:02.729Z,10.25
2019-03-06T15:59:32.459Z,10.14
2019-03-06T16:02:01.991Z,10.12
2019-03-06T16:04:31.712Z,10.18
2019-03-06T16:07:01.336Z,10.26
2019-03-06T16:09:31.071Z,10.22
2019-03-06T16:12:00.704Z,10.17
2019-03-06T16:14:30.328Z,10.10
2019-03-06T16:17:00.257Z,10.01
2019-03-06T16:19:29.988Z,9.91
2019-03-06T16:21:59.820Z,9.85
2019-03-06T16:24:29.860Z,9.76
2019-03-06T16:26:59.493Z,9.67
2019-03-06T16:29:29.141Z,9.63
2019-03-06T16:31:58.859Z,9.63
2019-03-06T16:34:28.790Z,9.61
2019-03-06T16:36:58.628Z,9.65
2019-03-06T16:39:28.559Z,9.72
2019-03-06T16:41:58.292Z,9.80
2019-03-06T16:44:28.138Z,9.79
2019-03-06T16:47:06.436Z,9.84
2019-03-06T16:49:29.314Z,9.85
2019-03-06T16:51:59.150Z,9.84
2019-03-06T16:54:28.879Z,9.83
2019-03-06T16:56:58.612Z,9.80
2019-03-06T16:59:29.867Z,9.79
2019-03-06T17:01:59.712Z,9.87
2019-03-06T17:04:29.640Z,9.92
2019-03-06T17:06:59.372Z,9.95
2019-03-06T17:09:29.210Z,9.79
2019-03-06T17:11:58.944Z,9.67
2019-03-06T17:14:28.658Z,9.58
2019-03-06T17:16:58.392Z,9.58
2019-03-06T17:19:28.084Z,9.46
2019-03-06T17:21:57.846Z,9.52
2019-03-06T17:24:27.489Z,9.39
2019-03-06T17:26:57.243Z,9.36
2019-03-06T17:29:27.732Z,9.33
2019-03-06T17:31:57.212Z,9.35
2019-03-06T17:34:28.865Z,9.24
2019-03-06T17:36:58.481Z,9.16
2019-03-06T17:39:28.322Z,9.13
2019-03-06T17:41:58.045Z,9.13
2019-03-06T17:44:30.536Z,8.97
2019-03-06T17:47:00.270Z,8.87
2019-03-06T17:49:30.622Z,8.83
2019-03-06T17:52:00.455Z,8.73
2019-03-06T17:54:30.072Z,8.72
2019-03-06T17:56:59.809Z,8.69
2019-03-06T17:59:30.104Z,8.66
2019-03-06T18:01:59.770Z,8.53
2019-03-06T18:04:30.010Z,8.41
2019-03-06T18:06:59.538Z,8.35
2019-03-06T18:09:29.279Z,8.25
2019-03-06T18:11:59.210Z,8.11
2019-03-06T18:14:28.934Z,8.03
2019-03-06T18:16:58.844Z,8.06
2019-03-06T18:19:28.441Z,7.99
2019-03-06T18:21:58.130Z,7.97
2019-03-06T18:24:28.055Z,7.92
2019-03-06T18:26:57.952Z,7.93
2019-03-06T18:29:29.129Z,7.93
2019-03-06T18:31:59.595Z,7.90
2019-03-06T18:34:29.651Z,7.85
2019-03-06T18:37:00.704Z,7.82
2019-03-06T18:39:30.949Z,7.77
2019-03-06T18:42:00.785Z,7.58
2019-03-06T18:44:30.533Z,7.38
2019-03-06T18:47:00.342Z,7.18
2019-03-06T18:49:31.296Z,6.95
2019-03-06T18:52:01.038Z,6.76
2019-03-06T18:54:31.071Z,6.55
2019-03-06T18:57:00.792Z,6.51
2019-03-06T18:59:30.540Z,6.28
2019-03-06T19:02:01.871Z,6.16
2019-03-06T19:04:36.013Z,6.04
2019-03-06T19:07:06.053Z,5.97
2019-03-06T19:09:35.786Z,5.99
2019-03-06T19:12:05.617Z,5.98
2019-03-06T19:14:38.232Z,5.82
2019-03-06T19:17:08.050Z,5.72
2019-03-06T19:19:39.526Z,5.49
2019-03-06T19:22:09.346Z,5.35
2019-03-06T19:24:39.276Z,5.43
2019-03-06T19:27:09.945Z,5.42
2019-03-06T19:29:39.963Z,5.39
2019-03-06T19:32:10.315Z,5.34
2019-03-06T19:34:40.450Z,5.40
2019-03-06T19:37:10.194Z,5.47
2019-03-06T19:39:39.673Z,5.63
2019-03-06T19:42:09.561Z,5.68
2019-03-06T19:44:39.150Z,5.73
2019-03-06T19:47:10.970Z,5.79
2019-03-06T19:49:42.520Z,6.04
2019-03-06T19:52:12.244Z,6.20
2019-03-06T19:54:42.101Z,6.20
2019-03-06T19:57:13.445Z,6.27
2019-03-06T19:59:43.274Z,6.36
2019-03-06T20:02:13.099Z,6.46
2019-03-06T20:04:42.943Z,6.48
2019-03-06T20:07:12.494Z,6.58
2019-03-06T20:09:42.191Z,6.66
2019-03-06T20:12:11.881Z,6.73
2019-03-06T20:14:41.658Z,6.75
2019-03-06T20:17:11.387Z,6.68
2019-03-06T20:19:41.010Z,6.64
2019-03-06T20:22:10.633Z,6.52
2019-03-06T20:24:45.643Z,6.38
2019-03-06T20:27:15.217Z,6.23
2019-03-06T20:29:47.500Z,6.15
2019-03-06T20:32:17.265Z,6.06
2019-03-06T20:34:47.098Z,6.03
2019-03-06T20:37:16.794Z,5.94
2019-03-06T20:39:46.425Z,5.88
2019-03-06T20:42:16.435Z,5.83
2019-03-06T20:44:48.039Z,5.83
2019-03-06T20:47:17.661Z,5.75
2019-03-06T20:49:48.324Z,5.75
2019-03-06T20:52:18.141Z,5.74
2019-03-06T20:54:47.875Z,5.73
2019-03-06T20:57:18.601Z,5.69
2019-03-06T20:59:48.568Z,5.64
2019-03-06T21:02:20.229Z,5.61
2019-03-06T21:04:50.097Z,5.56
2019-03-06T21:07:19.899Z,5.49
2019-03-06T21:09:49.726Z,5.40
2019-03-06T21:12:19.466Z,5.30
2019-03-06T21:14:49.192Z,5.16
2019-03-06T21:17:18.922Z,5.09
2019-03-06T21:19:48.956Z,5.04
2019-03-06T21:22:18.701Z,4.98
2019-03-06T21:24:48.516Z,4.87
2019-03-06T21:27:18.154Z,4.82
2019-03-06T21:29:47.783Z,4.74
2019-03-06T21:32:17.507Z,4.70
2019-03-06T21:34:47.546Z,4.63
2019-03-06T21:37:17.370Z,4.58
2019-03-06T21:39:47.004Z,4.50
2019-03-06T21:42:16.559Z,4.49
2019-03-06T21:44:46.157Z,4.53
2019-03-06T21:47:15.806Z,4.70
2019-03-06T21:49:45.559Z,4.86
2019-03-06T21:52:15.261Z,4.97
2019-03-06T21:54:45.340Z,5.06
2019-03-06T21:57:15.115Z,5.14
2019-03-06T21:59:46.071Z,5.17
2019-03-06T22:02:15.917Z,5.19
2019-03-06T22:04:45.649Z,5.26
2019-03-06T22:07:15.566Z,5.26
2019-03-06T22:09:45.197Z,5.19
2019-03-06T22:12:14.927Z,5.11
2019-03-06T22:14:45.486Z,5.02
2019-03-06T22:17:15.406Z,4.88
2019-03-06T22:19:45.041Z,4.68
2019-03-06T22:22:16.109Z,4.56
2019-03-06T22:24:45.826Z,4.55
2019-03-06T22:27:15.457Z,4.59
2019-03-06T22:29:44.999Z,4.71
2019-03-06T22:32:14.507Z,4.72
2019-03-06T22:34:44.139Z,4.73
2019-03-06T22:37:13.770Z,4.84
2019-03-06T22:39:43.502Z,4.87
2019-03-06T22:42:13.116Z,4.82
2019-03-06T22:44:42.773Z,4.76
2019-03-06T22:47:12.512Z,4.83
2019-03-06T22:49:42.110Z,4.90
2019-03-06T22:52:12.959Z,4.85
2019-03-06T22:54:42.686Z,4.75
2019-03-06T22:57:12.429Z,4.82
2019-03-06T22:59:42.279Z,4.88
2019-03-06T23:02:11.889Z,4.81
2019-03-06T23:04:41.509Z,4.63
2019-03-06T23:07:11.755Z,4.44
2019-03-06T23:09:41.487Z,4.36
2019-03-06T23:12:14.387Z,4.28
2019-03-06T23:14:46.879Z,4.20
2019-03-06T23:17:16.500Z,4.18
2019-03-06T23:19:46.139Z,4.22
2019-03-06T23:22:15.860Z,4.34
2019-03-06T23:24:48.740Z,4.40
2019-03-06T23:27:18.188Z,4.44
2019-03-06T23:29:47.934Z,4.57
2019-03-06T23:32:17.544Z,4.66
2019-03-06T23:34:47.167Z,4.64
2019-03-06T23:37:16.900Z,4.65
2019-03-06T23:39:46.629Z,4.62
2019-03-06T23:42:16.153Z,4.58
2019-03-06T23:44:46.224Z,4.63
2019-03-06T23:47:15.620Z,4.58
2019-03-06T23:49:46.062Z,4.48
2019-03-06T23:52:16.762Z,4.39
2019-03-06T23:54:46.342Z,4.33
2019-03-06T23:57:15.973Z,4.26
2019-03-06T23:59:46.417Z,4.23
